Westover ARB,Metropolitan Airport Springfield,Chicopee US
ICAO: KCEF
IATA: CEF
Category: Medium
Scheduled Services: No

Elevation: 241 ft
TransAlt. 18000 ft.

Airport Communications:
BRADLEY APP/DEP:125.35
ATIS:114
GND:118.35
PMSV METRO:27.475
COMD POST 439 AW:25.21
PTD:37.22
TWR:134.85
UNICOM:123

KCEF Zoom In..

Runways:

(A) RW 05 length 11597 ft width 301 ft
ILS 109.90 / hdg 48

(B) RW 15 length 7082 ft width 150 ft
---- / hdg 149

(C) RW 23 length 11597 ft width 301 ft
ILS 109.90 / hdg 228

(D) RW 33 length 7082 ft width 150 ft
---- / hdg 329

Location; KCEF
Day. 06 / Time. 05.56 Zulu
* Altimeter: 30.06
* Temperature: 16° c. 60.8°f.
* Wind from: 000° Speed 00 kn.
Dewpoint: 15° c.
Visibility: 10 Statute Miles.
Clouds: Scattered 7000 ft.

KCEF 060556Z AUTO 00000KT 10SM SCT070 16/15 A3006 RMK AO2 SLP184 T01610150 10244 20156 50006

Going to: --> -->


Wind - Calm.

 
 
jpsmedia worldairports.se 2020   terms of use